createdAt,value
2022-12-17T00:00:27.715Z,1014.80
2022-12-17T00:01:26.503Z,1014.85
2022-12-17T00:02:27.236Z,1014.86
2022-12-17T00:03:28.037Z,1014.85
2022-12-17T00:04:28.702Z,1014.80
2022-12-17T00:05:29.300Z,1014.79
2022-12-17T00:06:30.044Z,1014.84
2022-12-17T00:07:30.646Z,1014.78
2022-12-17T00:08:31.305Z,1014.77
2022-12-17T00:09:31.908Z,1014.81
2022-12-17T00:10:32.503Z,1014.76
2022-12-17T00:11:33.104Z,1014.80
2022-12-17T00:12:33.697Z,1014.83
2022-12-17T00:13:34.672Z,1014.83
2022-12-17T00:14:35.422Z,1014.82
2022-12-17T00:15:36.024Z,1014.85
2022-12-17T00:16:36.679Z,1014.86
2022-12-17T00:17:37.370Z,1014.86
2022-12-17T00:18:37.965Z,1014.92
2022-12-17T00:19:38.572Z,1014.88
2022-12-17T00:20:39.164Z,1014.90
2022-12-17T00:21:40.562Z,1014.88
2022-12-17T00:22:41.157Z,1014.93
2022-12-17T00:23:41.757Z,1014.92
2022-12-17T00:24:42.349Z,1014.91
2022-12-17T00:25:44.569Z,1014.92
2022-12-17T00:26:44.540Z,1014.96
2022-12-17T00:27:45.140Z,1014.93
2022-12-17T00:28:45.733Z,1014.86
2022-12-17T00:29:46.336Z,1014.84
2022-12-17T00:30:47.778Z,1014.83
2022-12-17T00:31:48.444Z,1014.91
2022-12-17T00:32:49.094Z,1014.88
2022-12-17T00:33:50.558Z,1014.91
2022-12-17T00:34:51.300Z,1014.97
2022-12-17T00:35:51.904Z,1014.84
2022-12-17T00:36:52.549Z,1014.92
2022-12-17T00:37:53.152Z,1014.96
2022-12-17T00:38:53.747Z,1014.90
2022-12-17T00:39:59.103Z,1015.02
2022-12-17T00:40:55.941Z,1014.94
2022-12-17T00:41:56.611Z,1014.87
2022-12-17T00:42:57.194Z,1014.96
2022-12-17T00:43:57.798Z,1014.98
2022-12-17T00:44:58.393Z,1014.89
2022-12-17T00:45:58.997Z,1014.88
2022-12-17T00:46:59.717Z,1014.91
2022-12-17T00:48:00.338Z,1014.92
2022-12-17T00:49:00.930Z,1014.93
2022-12-17T00:50:01.534Z,1014.97
2022-12-17T00:51:02.155Z,1014.96
2022-12-17T00:52:03.555Z,1014.90
2022-12-17T00:53:04.149Z,1014.88
2022-12-17T00:54:04.751Z,1014.88
2022-12-17T00:55:05.344Z,1014.91
2022-12-17T00:56:05.948Z,1014.93
2022-12-17T00:57:06.542Z,1014.87
2022-12-17T00:58:07.144Z,1014.92
2022-12-17T00:59:07.740Z,1014.92
2022-12-17T01:00:08.347Z,1014.92
2022-12-17T01:01:09.936Z,1014.87
2022-12-17T01:02:10.653Z,1014.90
2022-12-17T01:03:11.412Z,1014.90
2022-12-17T01:04:12.064Z,1014.88
2022-12-17T01:05:12.656Z,1014.91
2022-12-17T01:06:13.258Z,1014.94
2022-12-17T01:07:13.851Z,1014.85
2022-12-17T01:08:14.453Z,1014.87
2022-12-17T01:09:15.047Z,1014.73
2022-12-17T01:10:15.651Z,1014.86
2022-12-17T01:11:16.241Z,1014.86
2022-12-17T01:12:16.844Z,1014.79
2022-12-17T01:13:17.437Z,1014.87
2022-12-17T01:14:18.039Z,1014.87
2022-12-17T01:15:18.633Z,1014.87
2022-12-17T01:16:19.289Z,1014.88
2022-12-17T01:17:19.872Z,1014.88
2022-12-17T01:18:20.474Z,1014.86
2022-12-17T01:19:21.065Z,1014.90
2022-12-17T01:20:21.664Z,1014.88
2022-12-17T01:21:22.256Z,1014.84
2022-12-17T01:22:22.860Z,1014.88
2022-12-17T01:23:23.454Z,1014.86
2022-12-17T01:24:24.055Z,1014.84
2022-12-17T01:25:24.651Z,1014.81
2022-12-17T01:26:25.253Z,1014.85
2022-12-17T01:27:25.967Z,1014.79
2022-12-17T01:28:26.569Z,1014.84
2022-12-17T01:29:27.162Z,1014.80
2022-12-17T01:30:27.766Z,1014.94
2022-12-17T01:31:34.365Z,1014.85
2022-12-17T01:32:29.953Z,1014.83
2022-12-17T01:33:30.547Z,1014.92
2022-12-17T01:34:31.150Z,1014.94
2022-12-17T01:35:31.743Z,1014.89
2022-12-17T01:36:32.395Z,1014.84
2022-12-17T01:37:33.038Z,1014.94
2022-12-17T01:38:33.640Z,1014.95
2022-12-17T01:39:34.233Z,1014.90
2022-12-17T01:40:34.836Z,1014.89
2022-12-17T01:41:35.428Z,1015.00
2022-12-17T01:42:36.035Z,1014.97
2022-12-17T01:43:36.960Z,1014.94
2022-12-17T01:44:37.765Z,1014.93
2022-12-17T01:45:38.377Z,1014.97
2022-12-17T01:46:38.977Z,1014.98
2022-12-17T01:47:39.570Z,1014.97
2022-12-17T01:48:40.239Z,1014.97
2022-12-17T01:49:40.829Z,1014.96
2022-12-17T01:50:41.431Z,1014.95
2022-12-17T01:51:42.027Z,1014.97
2022-12-17T01:52:42.631Z,1014.96
2022-12-17T01:53:43.328Z,1014.89
2022-12-17T01:54:43.930Z,1014.96
2022-12-17T01:55:44.573Z,1014.94
2022-12-17T01:56:45.175Z,1014.93
2022-12-17T01:57:45.768Z,1014.96
2022-12-17T01:58:46.371Z,1014.91
2022-12-17T01:59:46.975Z,1014.94
2022-12-17T02:00:47.628Z,1014.95
2022-12-17T02:01:48.401Z,1014.91
2022-12-17T02:02:49.236Z,1014.94
2022-12-17T02:03:49.875Z,1014.96
2022-12-17T02:04:50.465Z,1014.92
2022-12-17T02:05:51.068Z,1014.91
2022-12-17T02:06:51.664Z,1014.95
2022-12-17T02:07:52.380Z,1014.90
2022-12-17T02:08:52.971Z,1014.89
2022-12-17T02:09:53.575Z,1014.97
2022-12-17T02:10:56.380Z,1014.91
2022-12-17T02:11:55.758Z,1014.96
2022-12-17T02:12:56.924Z,1014.97
2022-12-17T02:13:57.525Z,1014.96
2022-12-17T02:14:58.116Z,1014.98
2022-12-17T02:15:58.807Z,1015.09
2022-12-17T02:16:59.390Z,1015.04
2022-12-17T02:17:59.990Z,1015.05
2022-12-17T02:19:00.582Z,1015.06
2022-12-17T02:20:01.180Z,1015.10
2022-12-17T02:21:01.782Z,1015.13
2022-12-17T02:22:02.375Z,1015.14
2022-12-17T02:23:02.969Z,1015.12
2022-12-17T02:24:03.571Z,1015.16
2022-12-17T02:25:04.178Z,1015.17
2022-12-17T02:26:04.767Z,1015.12
2022-12-17T02:27:05.364Z,1015.15
2022-12-17T02:28:06.013Z,1015.19
2022-12-17T02:29:06.610Z,1015.19
2022-12-17T02:30:07.206Z,1015.18
2022-12-17T02:31:07.798Z,1015.17
2022-12-17T02:32:08.447Z,1015.20
2022-12-17T02:33:09.063Z,1015.14
2022-12-17T02:34:09.664Z,1015.24
2022-12-17T02:35:10.260Z,1015.18
2022-12-17T02:36:10.862Z,1015.30
2022-12-17T02:37:11.458Z,1015.27
2022-12-17T02:38:12.107Z,1015.20
2022-12-17T02:39:12.702Z,1015.22
2022-12-17T02:40:13.303Z,1015.20
2022-12-17T02:41:13.897Z,1015.22
2022-12-17T02:42:14.644Z,1015.27
2022-12-17T02:43:15.238Z,1015.24
2022-12-17T02:44:15.840Z,1015.35
2022-12-17T02:45:16.435Z,1015.24
2022-12-17T02:46:17.067Z,1015.30
2022-12-17T02:47:17.680Z,1015.32
2022-12-17T02:48:19.080Z,1015.27
2022-12-17T02:49:19.672Z,1015.33
2022-12-17T02:50:20.272Z,1015.37
2022-12-17T02:51:20.864Z,1015.31
2022-12-17T02:52:21.466Z,1015.34
2022-12-17T02:53:22.110Z,1015.36
2022-12-17T02:54:22.710Z,1015.39
2022-12-17T02:55:24.154Z,1015.40
2022-12-17T02:56:24.757Z,1015.41
2022-12-17T02:57:25.351Z,1015.41
2022-12-17T02:58:25.952Z,1015.44
2022-12-17T02:59:26.546Z,1015.51
2022-12-17T03:00:27.197Z,1015.49
2022-12-17T03:01:27.970Z,1015.44
2022-12-17T03:02:28.740Z,1015.48
2022-12-17T03:03:29.513Z,1015.54
2022-12-17T03:04:30.118Z,1015.56
2022-12-17T03:05:46.266Z,1015.64
2022-12-17T03:06:32.297Z,1015.57
2022-12-17T03:07:32.891Z,1015.55
2022-12-17T03:08:33.491Z,1015.61
2022-12-17T03:09:34.085Z,1015.67
2022-12-17T03:10:34.686Z,1015.59
2022-12-17T03:11:35.281Z,1015.56
2022-12-17T03:12:35.946Z,1015.57
2022-12-17T03:13:36.802Z,1015.54
2022-12-17T03:14:37.698Z,1015.56
2022-12-17T03:15:38.289Z,1015.56
2022-12-17T03:16:38.917Z,1015.55
2022-12-17T03:17:39.505Z,1015.52
2022-12-17T03:18:40.107Z,1015.52
2022-12-17T03:19:40.704Z,1015.63
2022-12-17T03:20:41.303Z,1015.59
2022-12-17T03:21:41.895Z,1015.55
2022-12-17T03:22:42.494Z,1015.56
2022-12-17T03:23:43.087Z,1015.51
2022-12-17T03:24:43.688Z,1015.53
2022-12-17T03:25:44.281Z,1015.57
2022-12-17T03:26:44.886Z,1015.63
2022-12-17T03:27:45.476Z,1015.67
2022-12-17T03:28:46.076Z,1015.60
2022-12-17T03:29:46.671Z,1015.64
2022-12-17T03:30:49.279Z,1015.62
2022-12-17T03:31:48.961Z,1015.62
2022-12-17T03:32:49.558Z,1015.62
2022-12-17T03:33:50.151Z,1015.64
2022-12-17T03:34:50.755Z,1015.66
2022-12-17T03:35:51.345Z,1015.63
2022-12-17T03:36:51.948Z,1015.71
2022-12-17T03:37:52.543Z,1015.67
2022-12-17T03:38:53.148Z,1015.77
2022-12-17T03:39:53.750Z,1015.77
2022-12-17T03:40:54.345Z,1015.81
2022-12-17T03:41:54.934Z,1015.80
2022-12-17T03:42:55.536Z,1015.80
2022-12-17T03:43:56.130Z,1015.75
2022-12-17T03:44:56.729Z,1015.81
2022-12-17T03:45:57.400Z,1015.84
2022-12-17T03:46:58.027Z,1015.89
2022-12-17T03:47:58.619Z,1015.86
2022-12-17T03:48:59.249Z,1015.74
2022-12-17T03:49:59.893Z,1015.76
2022-12-17T03:51:00.493Z,1015.79
2022-12-17T03:52:01.085Z,1015.84
2022-12-17T03:53:01.688Z,1015.89
2022-12-17T03:54:02.282Z,1015.95
2022-12-17T03:55:02.886Z,1015.97
2022-12-17T03:56:03.480Z,1015.97
2022-12-17T03:57:04.883Z,1015.96
2022-12-17T03:58:05.475Z,1015.97
2022-12-17T03:59:06.076Z,1016.00
2022-12-17T04:00:06.669Z,1016.00
2022-12-17T04:01:08.161Z,1015.98
2022-12-17T04:02:08.926Z,1016.00
2022-12-17T04:03:09.804Z,1015.97
2022-12-17T04:04:10.396Z,1015.99
2022-12-17T04:05:15.213Z,1016.06
2022-12-17T04:06:13.434Z,1016.06
2022-12-17T04:07:14.101Z,1016.11
2022-12-17T04:08:14.825Z,1016.13
2022-12-17T04:09:15.423Z,1016.13
2022-12-17T04:10:16.016Z,1016.14
2022-12-17T04:11:16.615Z,1016.16
2022-12-17T04:12:17.210Z,1016.13
2022-12-17T04:13:17.810Z,1016.07
2022-12-17T04:14:18.402Z,1016.14
2022-12-17T04:15:19.046Z,1016.12
2022-12-17T04:16:19.660Z,1016.16
2022-12-17T04:17:20.325Z,1016.17
2022-12-17T04:18:20.920Z,1016.12
2022-12-17T04:19:21.522Z,1016.07
2022-12-17T04:20:22.116Z,1016.05
2022-12-17T04:21:22.719Z,1016.16
2022-12-17T04:22:23.307Z,1016.16
2022-12-17T04:23:23.922Z,1016.12
2022-12-17T04:24:24.504Z,1016.16
2022-12-17T04:25:25.106Z,1016.14
2022-12-17T04:26:25.698Z,1016.19
2022-12-17T04:27:26.300Z,1016.20
2022-12-17T04:28:26.963Z,1016.21
2022-12-17T04:29:27.563Z,1016.16
2022-12-17T04:30:28.155Z,1016.13
2022-12-17T04:31:28.848Z,1016.21
2022-12-17T04:32:34.868Z,1016.09
2022-12-17T04:33:31.038Z,1016.15
2022-12-17T04:34:31.632Z,1016.16
2022-12-17T04:35:32.230Z,1016.18
2022-12-17T04:36:32.822Z,1016.12
2022-12-17T04:37:33.432Z,1016.22
2022-12-17T04:38:34.014Z,1016.21
2022-12-17T04:39:34.615Z,1016.29
2022-12-17T04:40:35.207Z,1016.25
2022-12-17T04:41:36.658Z,1016.26
2022-12-17T04:42:37.252Z,1016.32
2022-12-17T04:43:38.231Z,1016.25
2022-12-17T04:44:39.164Z,1016.27
2022-12-17T04:45:39.766Z,1016.25
2022-12-17T04:46:40.507Z,1016.27
2022-12-17T04:47:41.107Z,1016.27
2022-12-17T04:48:41.698Z,1016.30
2022-12-17T04:49:42.298Z,1016.32
2022-12-17T04:50:42.890Z,1016.35
2022-12-17T04:51:43.493Z,1016.46
2022-12-17T04:52:44.088Z,1016.42
2022-12-17T04:53:44.686Z,1016.43
2022-12-17T04:54:45.328Z,1016.48
2022-12-17T04:55:45.937Z,1016.48
2022-12-17T04:56:46.523Z,1016.52
2022-12-17T04:57:47.127Z,1016.56
2022-12-17T04:58:47.720Z,1016.52
2022-12-17T04:59:49.123Z,1016.50
2022-12-17T05:00:49.715Z,1016.59
2022-12-17T05:01:50.424Z,1016.48
2022-12-17T05:02:51.321Z,1016.47
2022-12-17T05:03:52.089Z,1016.47
2022-12-17T05:04:52.747Z,1016.51
2022-12-17T05:05:53.473Z,1016.55
2022-12-17T05:06:54.030Z,1016.59
2022-12-17T05:07:54.683Z,1016.51
2022-12-17T05:08:55.351Z,1016.49
2022-12-17T05:09:55.949Z,1016.49
2022-12-17T05:10:56.592Z,1016.45
2022-12-17T05:11:57.202Z,1016.52
2022-12-17T05:12:57.790Z,1016.50
2022-12-17T05:13:58.391Z,1016.56
2022-12-17T05:14:58.985Z,1016.57
2022-12-17T05:15:59.632Z,1016.61
2022-12-17T05:17:00.240Z,1016.64
2022-12-17T05:18:00.844Z,1016.61
2022-12-17T05:19:01.443Z,1016.68
2022-12-17T05:20:02.036Z,1016.66
2022-12-17T05:21:02.859Z,1016.66
2022-12-17T05:22:03.459Z,1016.63
2022-12-17T05:23:04.050Z,1016.66
2022-12-17T05:24:04.649Z,1016.60
2022-12-17T05:25:05.242Z,1016.60
2022-12-17T05:26:05.845Z,1016.62
2022-12-17T05:27:06.439Z,1016.62
2022-12-17T05:28:07.102Z,1016.61
2022-12-17T05:29:12.488Z,1016.55
2022-12-17T05:30:09.291Z,1016.59
2022-12-17T05:31:09.909Z,1016.74
2022-12-17T05:32:10.516Z,1016.60
2022-12-17T05:33:11.110Z,1016.64
2022-12-17T05:34:11.709Z,1016.69
2022-12-17T05:35:12.298Z,1016.74
2022-12-17T05:36:12.898Z,1016.73
2022-12-17T05:37:13.492Z,1016.79
2022-12-17T05:38:14.094Z,1016.72
2022-12-17T05:39:14.691Z,1016.74
2022-12-17T05:40:15.288Z,1016.83
2022-12-17T05:41:15.882Z,1016.82
2022-12-17T05:42:16.533Z,1016.92
2022-12-17T05:43:17.125Z,1016.87
2022-12-17T05:44:17.725Z,1016.90
2022-12-17T05:45:18.387Z,1016.87
2022-12-17T05:46:19.034Z,1016.96
2022-12-17T05:47:19.675Z,1016.97
2022-12-17T05:48:20.275Z,1017.01
2022-12-17T05:49:20.868Z,1017.02
2022-12-17T05:50:21.471Z,1017.03
2022-12-17T05:51:22.065Z,1017.00
2022-12-17T05:52:22.667Z,1016.97
2022-12-17T05:53:23.305Z,1016.94
2022-12-17T05:54:23.904Z,1016.96
2022-12-17T05:55:24.495Z,1016.98
2022-12-17T05:56:25.097Z,1017.02
2022-12-17T05:57:25.689Z,1017.03
2022-12-17T05:58:26.291Z,1016.98
2022-12-17T05:59:26.937Z,1017.00
2022-12-17T06:00:27.535Z,1017.05
2022-12-17T06:01:28.199Z,1017.00
2022-12-17T06:02:28.834Z,1017.03
2022-12-17T06:03:29.561Z,1017.06
2022-12-17T06:04:30.070Z,1017.12
2022-12-17T06:05:30.662Z,1017.11
2022-12-17T06:06:31.265Z,1017.13
2022-12-17T06:07:31.860Z,1017.13
2022-12-17T06:08:32.457Z,1017.11
2022-12-17T06:09:33.050Z,1017.25
2022-12-17T06:10:33.654Z,1017.20
2022-12-17T06:11:34.246Z,1017.28
2022-12-17T06:12:34.901Z,1017.25
2022-12-17T06:13:35.856Z,1017.21
2022-12-17T06:14:36.636Z,1017.26
2022-12-17T06:15:37.278Z,1017.25
2022-12-17T06:16:37.925Z,1017.29
2022-12-17T06:17:38.561Z,1017.34
2022-12-17T06:18:39.153Z,1017.36
2022-12-17T06:19:39.757Z,1017.32
2022-12-17T06:20:40.419Z,1017.32
2022-12-17T06:21:41.171Z,1017.36
2022-12-17T06:22:41.765Z,1017.33
2022-12-17T06:23:42.365Z,1017.31
2022-12-17T06:24:46.077Z,1017.34
2022-12-17T06:25:45.351Z,1017.46
2022-12-17T06:26:45.942Z,1017.42
2022-12-17T06:27:46.545Z,1017.41
2022-12-17T06:28:47.140Z,1017.37
2022-12-17T06:29:47.742Z,1017.47
2022-12-17T06:30:49.190Z,1017.44
2022-12-17T06:31:49.805Z,1017.45
2022-12-17T06:32:50.384Z,1017.44
2022-12-17T06:33:50.983Z,1017.41
2022-12-17T06:34:51.574Z,1017.47
2022-12-17T06:35:53.025Z,1017.47
2022-12-17T06:36:53.666Z,1017.45
2022-12-17T06:37:54.269Z,1017.41
2022-12-17T06:38:54.863Z,1017.41
2022-12-17T06:39:55.525Z,1017.41
2022-12-17T06:40:56.968Z,1017.40
2022-12-17T06:42:02.283Z,1017.40
2022-12-17T06:42:59.207Z,1017.42
2022-12-17T06:43:59.806Z,1017.39
2022-12-17T06:45:00.398Z,1017.41
2022-12-17T06:46:01.913Z,1017.45
2022-12-17T06:47:02.596Z,1017.45
2022-12-17T06:48:03.169Z,1017.46
2022-12-17T06:49:03.760Z,1017.48
2022-12-17T06:50:04.364Z,1017.58
2022-12-17T06:51:04.957Z,1017.55
2022-12-17T06:52:05.560Z,1017.62
2022-12-17T06:53:06.155Z,1017.61
2022-12-17T06:54:06.751Z,1017.55
2022-12-17T06:55:07.342Z,1017.60
2022-12-17T06:56:07.942Z,1017.61
2022-12-17T06:57:08.537Z,1017.56
2022-12-17T06:58:09.199Z,1017.53
2022-12-17T06:59:09.791Z,1017.61
2022-12-17T07:00:10.389Z,1017.62
2022-12-17T07:01:11.196Z,1017.57
2022-12-17T07:02:11.931Z,1017.59
2022-12-17T07:03:14.812Z,1017.68
2022-12-17T07:04:13.267Z,1017.66
2022-12-17T07:05:13.858Z,1017.63
2022-12-17T07:06:14.459Z,1017.63
2022-12-17T07:07:15.054Z,1017.62
2022-12-17T07:08:15.651Z,1017.67
2022-12-17T07:09:16.242Z,1017.63
2022-12-17T07:10:16.845Z,1017.66
2022-12-17T07:11:17.439Z,1017.72
2022-12-17T07:12:18.046Z,1017.60
2022-12-17T07:13:18.636Z,1017.61
2022-12-17T07:14:19.238Z,1017.67
2022-12-17T07:15:19.834Z,1017.70
2022-12-17T07:16:20.465Z,1017.65
2022-12-17T07:17:21.067Z,1017.66
2022-12-17T07:18:21.667Z,1017.71
2022-12-17T07:19:27.053Z,1017.71
2022-12-17T07:20:23.852Z,1017.72
2022-12-17T07:21:24.444Z,1017.73
2022-12-17T07:22:25.045Z,1017.81
2022-12-17T07:23:25.639Z,1017.75
2022-12-17T07:24:26.241Z,1017.86
2022-12-17T07:25:26.830Z,1017.83
2022-12-17T07:26:27.433Z,1017.84
2022-12-17T07:27:28.028Z,1017.73
2022-12-17T07:28:28.690Z,1017.89
2022-12-17T07:29:29.281Z,1017.84
2022-12-17T07:30:29.883Z,1017.85
2022-12-17T07:31:30.495Z,1017.91
2022-12-17T07:32:31.982Z,1017.87
2022-12-17T07:33:32.797Z,1017.90
2022-12-17T07:34:33.436Z,1017.86
2022-12-17T07:35:34.028Z,1017.91
2022-12-17T07:36:35.479Z,1017.83
2022-12-17T07:37:36.228Z,1017.93
2022-12-17T07:38:36.826Z,1017.88
2022-12-17T07:39:37.419Z,1017.96
2022-12-17T07:40:38.020Z,1018.03
2022-12-17T07:41:38.612Z,1017.94
2022-12-17T07:42:39.211Z,1017.98
2022-12-17T07:43:40.048Z,1017.99
2022-12-17T07:44:40.880Z,1017.96
2022-12-17T07:45:41.498Z,1018.01
2022-12-17T07:46:42.889Z,1017.98
2022-12-17T07:47:43.533Z,1018.06
2022-12-17T07:48:44.140Z,1018.06
2022-12-17T07:49:44.731Z,1018.04
2022-12-17T07:50:45.332Z,1018.12
2022-12-17T07:51:45.926Z,1018.19
2022-12-17T07:52:46.527Z,1018.19
2022-12-17T07:53:47.118Z,1018.24
2022-12-17T07:54:47.771Z,1018.24
2022-12-17T07:55:48.361Z,1018.26
2022-12-17T07:56:48.962Z,1018.28
2022-12-17T07:57:49.556Z,1018.33
2022-12-17T07:58:50.152Z,1018.35
2022-12-17T07:59:50.748Z,1018.28
2022-12-17T08:00:51.412Z,1018.26
2022-12-17T08:01:52.238Z,1018.31
2022-12-17T08:02:53.111Z,1018.33
2022-12-17T08:03:53.609Z,1018.33
2022-12-17T08:04:54.212Z,1018.35
2022-12-17T08:05:54.805Z,1018.33
2022-12-17T08:07:01.682Z,1018.38
2022-12-17T08:07:56.992Z,1018.39
2022-12-17T08:08:57.597Z,1018.43
2022-12-17T08:09:58.195Z,1018.43
2022-12-17T08:10:58.790Z,1018.45
2022-12-17T08:11:59.384Z,1018.43
2022-12-17T08:12:59.983Z,1018.53
2022-12-17T08:14:00.576Z,1018.49
2022-12-17T08:15:01.178Z,1018.46
2022-12-17T08:16:01.767Z,1018.55
2022-12-17T08:17:02.455Z,1018.52
2022-12-17T08:18:03.042Z,1018.66
2022-12-17T08:19:03.778Z,1018.65
2022-12-17T08:20:04.364Z,1018.62
2022-12-17T08:21:04.966Z,1018.67
2022-12-17T08:22:05.561Z,1018.62
2022-12-17T08:23:06.199Z,1018.67
2022-12-17T08:24:06.822Z,1018.77
2022-12-17T08:25:07.423Z,1018.78
2022-12-17T08:26:08.014Z,1018.75
2022-12-17T08:27:08.618Z,1018.84
2022-12-17T08:28:15.806Z,1018.76
2022-12-17T08:29:10.800Z,1018.83
2022-12-17T08:30:11.402Z,1018.86
2022-12-17T08:31:12.087Z,1018.88
2022-12-17T08:32:12.691Z,1018.88
2022-12-17T08:33:13.288Z,1018.83
2022-12-17T08:34:13.881Z,1018.88
2022-12-17T08:35:14.483Z,1018.81
2022-12-17T08:36:15.076Z,1018.91
2022-12-17T08:37:15.678Z,1018.82
2022-12-17T08:38:16.372Z,1018.83
2022-12-17T08:39:17.823Z,1018.78
2022-12-17T08:40:18.486Z,1018.83
2022-12-17T08:41:19.088Z,1018.78
2022-12-17T08:42:19.676Z,1018.81
2022-12-17T08:43:20.280Z,1018.72
2022-12-17T08:44:20.871Z,1018.70
2022-12-17T08:45:21.471Z,1018.62
2022-12-17T08:46:22.177Z,1018.68
2022-12-17T08:47:22.937Z,1018.71
2022-12-17T08:48:23.542Z,1018.68
2022-12-17T08:49:24.194Z,1018.79
2022-12-17T08:50:24.785Z,1018.85
2022-12-17T08:51:25.389Z,1018.82
2022-12-17T08:52:25.979Z,1018.92
2022-12-17T08:53:28.544Z,1018.79
2022-12-17T08:54:28.164Z,1018.90
2022-12-17T08:55:28.784Z,1018.85
2022-12-17T08:56:29.365Z,1018.89
2022-12-17T08:57:32.247Z,1018.89
2022-12-17T08:58:31.489Z,1018.86
2022-12-17T08:59:32.092Z,1018.94
2022-12-17T09:00:32.688Z,1018.88
2022-12-17T09:01:33.444Z,1018.91
2022-12-17T09:02:34.270Z,1018.89
2022-12-17T09:03:35.349Z,1018.99
2022-12-17T09:04:36.161Z,1018.94
2022-12-17T09:05:36.786Z,1018.92
2022-12-17T09:06:39.221Z,1018.97
2022-12-17T09:07:38.972Z,1019.04
2022-12-17T09:08:39.564Z,1019.02
2022-12-17T09:09:40.164Z,1019.12
2022-12-17T09:10:40.757Z,1019.03
2022-12-17T09:11:41.362Z,1019.09
2022-12-17T09:12:41.950Z,1019.12
2022-12-17T09:13:42.550Z,1019.09
2022-12-17T09:14:43.141Z,1019.14
2022-12-17T09:15:43.743Z,1019.14
2022-12-17T09:16:44.376Z,1019.14
2022-12-17T09:17:45.034Z,1019.11
2022-12-17T09:18:45.628Z,1019.11
2022-12-17T09:19:46.228Z,1019.11
2022-12-17T09:20:46.825Z,1019.09
2022-12-17T09:21:47.424Z,1019.13
2022-12-17T09:22:48.021Z,1019.14
2022-12-17T09:23:48.618Z,1019.18
2022-12-17T09:24:49.209Z,1019.16
2022-12-17T09:25:53.668Z,1019.12
2022-12-17T09:26:51.398Z,1019.19
2022-12-17T09:27:52.008Z,1019.18
2022-12-17T09:28:52.591Z,1019.21
2022-12-17T09:29:53.190Z,1019.19
2022-12-17T09:30:53.876Z,1019.23
2022-12-17T09:31:54.501Z,1019.26
2022-12-17T09:32:55.095Z,1019.26
2022-12-17T09:33:55.696Z,1019.30
2022-12-17T09:34:56.292Z,1019.29
2022-12-17T09:35:56.896Z,1019.37
2022-12-17T09:36:57.487Z,1019.41
2022-12-17T09:37:58.087Z,1019.40
2022-12-17T09:38:58.677Z,1019.35
2022-12-17T09:39:59.279Z,1019.37
2022-12-17T09:40:59.870Z,1019.41
2022-12-17T09:42:00.475Z,1019.40
2022-12-17T09:43:01.065Z,1019.44
2022-12-17T09:44:01.814Z,1019.44
2022-12-17T09:45:02.449Z,1019.40
2022-12-17T09:46:03.109Z,1019.51
2022-12-17T09:47:03.714Z,1019.47
2022-12-17T09:48:04.316Z,1019.53
2022-12-17T09:49:05.124Z,1019.53
2022-12-17T09:50:05.903Z,1019.53
2022-12-17T09:51:06.491Z,1019.52
2022-12-17T09:52:07.090Z,1019.53
2022-12-17T09:53:07.688Z,1019.55
2022-12-17T09:54:08.281Z,1019.55
2022-12-17T09:55:08.871Z,1019.52
2022-12-17T09:56:09.471Z,1019.68
2022-12-17T09:57:10.063Z,1019.61
2022-12-17T09:58:10.676Z,1019.63
2022-12-17T09:59:11.325Z,1019.67
2022-12-17T10:00:11.975Z,1019.68
2022-12-17T10:01:12.645Z,1019.58
2022-12-17T10:02:13.453Z,1019.60
2022-12-17T10:03:14.182Z,1019.64
2022-12-17T10:04:14.797Z,1019.56
2022-12-17T10:05:15.389Z,1019.58
2022-12-17T10:06:22.258Z,1019.58
2022-12-17T10:07:17.576Z,1019.61
2022-12-17T10:08:18.177Z,1019.58
2022-12-17T10:09:18.918Z,1019.59
2022-12-17T10:10:19.520Z,1019.60
2022-12-17T10:11:20.116Z,1019.61
2022-12-17T10:12:20.715Z,1019.62
2022-12-17T10:13:21.308Z,1019.63
2022-12-17T10:14:21.910Z,1019.66
2022-12-17T10:15:23.352Z,1019.72
2022-12-17T10:16:24.018Z,1019.67
2022-12-17T10:17:24.602Z,1019.72
2022-12-17T10:18:25.211Z,1019.73
2022-12-17T10:19:25.795Z,1019.79
2022-12-17T10:20:26.395Z,1019.67
2022-12-17T10:21:26.987Z,1019.72
2022-12-17T10:22:27.588Z,1019.77
2022-12-17T10:23:28.184Z,1019.86
2022-12-17T10:24:28.788Z,1019.74
2022-12-17T10:25:29.449Z,1019.83
2022-12-17T10:26:30.047Z,1019.83
2022-12-17T10:27:30.645Z,1019.83
2022-12-17T10:28:31.245Z,1019.83
2022-12-17T10:29:31.833Z,1019.82
2022-12-17T10:30:32.435Z,1019.91
2022-12-17T10:31:33.174Z,1019.83
2022-12-17T10:32:33.878Z,1019.90
2022-12-17T10:33:34.857Z,1019.88
2022-12-17T10:34:35.646Z,1019.89
2022-12-17T10:35:36.237Z,1019.84
2022-12-17T10:36:36.839Z,1019.95
2022-12-17T10:37:37.443Z,1019.95
2022-12-17T10:38:38.037Z,1019.90
2022-12-17T10:39:38.636Z,1019.94
2022-12-17T10:40:39.230Z,1019.91
2022-12-17T10:41:39.832Z,1020.02
2022-12-17T10:42:40.422Z,1019.96
2022-12-17T10:43:41.025Z,1019.95
2022-12-17T10:44:41.615Z,1020.02
2022-12-17T10:45:42.218Z,1019.94
2022-12-17T10:46:42.908Z,1019.95
2022-12-17T10:47:43.549Z,1019.95
2022-12-17T10:48:44.149Z,1020.00
2022-12-17T10:49:44.738Z,1019.97
2022-12-17T10:50:45.331Z,1019.92
2022-12-17T10:51:46.082Z,1020.00
2022-12-17T10:52:46.724Z,1019.97
2022-12-17T10:53:47.324Z,1019.96
2022-12-17T10:54:49.580Z,1019.88
2022-12-17T10:55:49.525Z,1019.92
2022-12-17T10:58:05.525Z,1019.82
2022-12-17T10:59:06.126Z,1019.83
2022-12-17T11:00:07.572Z,1019.83
2022-12-17T11:01:08.256Z,1019.89
2022-12-17T11:02:08.985Z,1019.86
2022-12-17T11:03:09.676Z,1019.86
2022-12-17T11:04:10.320Z,1019.84
2022-12-17T11:05:10.915Z,1019.84
2022-12-17T11:06:11.512Z,1019.91
2022-12-17T11:07:12.110Z,1019.86
2022-12-17T11:08:12.701Z,1019.85
2022-12-17T11:09:13.306Z,1019.88
2022-12-17T11:10:13.997Z,1019.97
2022-12-17T11:11:14.597Z,1019.96
2022-12-17T11:12:15.189Z,1019.93
2022-12-17T11:13:15.789Z,1019.94
2022-12-17T11:14:16.383Z,1019.98
2022-12-17T11:15:17.049Z,1019.98
2022-12-17T11:16:18.579Z,1020.08
2022-12-17T11:17:19.246Z,1019.97
2022-12-17T11:18:19.842Z,1019.99
2022-12-17T11:19:20.443Z,1020.12
2022-12-17T11:20:21.036Z,1020.07
2022-12-17T11:21:21.687Z,1020.02
2022-12-17T11:22:22.307Z,1020.07
2022-12-17T11:23:22.881Z,1020.11
2022-12-17T11:24:23.475Z,1020.11
2022-12-17T11:25:24.078Z,1020.19
2022-12-17T11:26:24.673Z,1020.13
2022-12-17T11:27:25.276Z,1020.17
2022-12-17T11:28:25.870Z,1020.17
2022-12-17T11:29:26.473Z,1020.09
2022-12-17T11:30:30.722Z,1020.19
2022-12-17T11:31:28.683Z,1020.13
2022-12-17T11:32:29.323Z,1020.11
2022-12-17T11:33:29.924Z,1020.08
2022-12-17T11:34:30.566Z,1020.08
2022-12-17T11:35:31.167Z,1019.96
2022-12-17T11:36:38.504Z,1020.05
2022-12-17T11:37:33.358Z,1020.07
2022-12-17T11:38:34.102Z,1020.07
2022-12-17T11:39:34.607Z,1019.99
2022-12-17T11:40:35.297Z,1020.02
2022-12-17T11:41:35.863Z,1019.97
2022-12-17T11:42:36.455Z,1019.94
2022-12-17T11:43:37.059Z,1019.97
2022-12-17T11:44:37.652Z,1019.89
2022-12-17T11:45:38.255Z,1019.99
2022-12-17T11:46:38.894Z,1020.02
2022-12-17T11:47:39.501Z,1019.96
2022-12-17T11:48:40.363Z,1019.96
2022-12-17T11:49:40.760Z,1019.95
2022-12-17T11:50:41.349Z,1019.92
2022-12-17T11:51:41.950Z,1020.00
2022-12-17T11:52:42.543Z,1019.96
2022-12-17T11:53:43.148Z,1019.93
2022-12-17T11:54:43.742Z,1019.89
2022-12-17T11:55:44.395Z,1019.89
2022-12-17T11:56:44.990Z,1019.95
2022-12-17T11:57:45.593Z,1019.90
2022-12-17T11:58:46.188Z,1019.87
2022-12-17T11:59:51.129Z,1019.85
2022-12-17T12:00:48.428Z,1019.90
2022-12-17T12:01:49.058Z,1019.92
2022-12-17T12:02:50.630Z,1019.93
2022-12-17T12:03:51.289Z,1019.91
2022-12-17T12:04:51.903Z,1019.86
2022-12-17T12:05:56.713Z,1019.89
2022-12-17T12:06:54.089Z,1019.89
2022-12-17T12:07:54.690Z,1019.92
2022-12-17T12:08:56.085Z,1019.93
2022-12-17T12:09:56.683Z,1019.94
2022-12-17T12:10:57.274Z,1019.93
2022-12-17T12:11:57.878Z,1019.90
2022-12-17T12:12:58.471Z,1019.88
2022-12-17T12:13:59.875Z,1019.87
2022-12-17T12:15:00.466Z,1019.88